sensor_id;sensor_type;location;lat;lon;timestamp;pressure;altitude;pressure_sealevel;temperature;humidity
59951;BME280;45812;53.540;9.774;2023-10-13T00:02:10;101146.56;;;14.21;100.00
59951;BME280;45812;53.540;9.774;2023-10-13T00:04:35;101148.78;;;14.17;100.00
59951;BME280;45812;53.540;9.774;2023-10-13T00:07:01;101145.25;;;14.17;100.00
59951;BME280;45812;53.540;9.774;2023-10-13T00:09:28;101142.75;;;14.15;100.00
59951;BME280;45812;53.540;9.774;2023-10-13T00:12:08;101143.78;;;14.14;100.00
59951;BME280;45812;53.540;9.774;2023-10-13T00:14:41;101141.94;;;14.15;100.00
59951;BME280;45812;53.540;9.774;2023-10-13T00:17:07;101136.56;;;14.15;100.00
59951;BME280;45812;53.540;9.774;2023-10-13T00:19:37;101131.03;;;14.16;100.00
59951;BME280;45812;53.540;9.774;2023-10-13T00:22:05;101130.22;;;14.16;100.00
59951;BME280;45812;53.540;9.774;2023-10-13T00:24:34;101131.22;;;14.15;100.00
59951;BME280;45812;53.540;9.774;2023-10-13T00:27:07;101127.53;;;14.16;100.00
59951;BME280;45812;53.540;9.774;2023-10-13T00:29:36;101122.00;;;14.17;100.00
59951;BME280;45812;53.540;9.774;2023-10-13T00:32:03;101114.78;;;14.18;100.00
59951;BME280;45812;53.540;9.774;2023-10-13T00:34:29;101107.78;;;14.17;100.00
59951;BME280;45812;53.540;9.774;2023-10-13T00:37:02;101111.09;;;14.19;100.00
59951;BME280;45812;53.540;9.774;2023-10-13T00:39:44;101121.81;;;14.19;100.00
59951;BME280;45812;53.540;9.774;2023-10-13T00:42:10;101118.13;;;14.20;100.00
59951;BME280;45812;53.540;9.774;2023-10-13T00:44:44;101108.91;;;14.22;100.00
59951;BME280;45812;53.540;9.774;2023-10-13T00:47:13;101101.69;;;14.23;100.00
59951;BME280;45812;53.540;9.774;2023-10-13T00:49:47;101103.00;;;14.27;100.00
59951;BME280;45812;53.540;9.774;2023-10-13T00:52:13;101090.44;;;14.28;100.00
59951;BME280;45812;53.540;9.774;2023-10-13T00:54:41;101086.56;;;14.30;100.00
59951;BME280;45812;53.540;9.774;2023-10-13T00:57:13;101083.88;;;14.30;100.00
59951;BME280;45812;53.540;9.774;2023-10-13T00:59:57;101084.56;;;14.32;100.00
59951;BME280;45812;53.540;9.774;2023-10-13T01:02:23;101080.03;;;14.33;100.00
59951;BME280;45812;53.540;9.774;2023-10-13T01:05:02;101075.72;;;14.32;100.00
59951;BME280;45812;53.540;9.774;2023-10-13T01:07:28;101073.69;;;14.34;100.00
59951;BME280;45812;53.540;9.774;2023-10-13T01:09:53;101068.31;;;14.34;100.00
59951;BME280;45812;53.540;9.774;2023-10-13T01:12:19;101063.97;;;14.33;100.00
59951;BME280;45812;53.540;9.774;2023-10-13T01:14:44;101059.78;;;14.30;100.00
59951;BME280;45812;53.540;9.774;2023-10-13T01:17:11;101058.97;;;14.30;100.00
59951;BME280;45812;53.540;9.774;2023-10-13T01:19:36;101060.81;;;14.29;100.00
59951;BME280;45812;53.540;9.774;2023-10-13T01:22:07;101053.59;;;14.30;100.00
59951;BME280;45812;53.540;9.774;2023-10-13T01:24:33;101050.75;;;14.31;100.00
59951;BME280;45812;53.540;9.774;2023-10-13T01:27:00;101042.72;;;14.31;100.00
59951;BME280;45812;53.540;9.774;2023-10-13T01:29:48;101037.66;;;14.36;100.00
59951;BME280;45812;53.540;9.774;2023-10-13T01:32:23;101031.94;;;14.39;100.00
59951;BME280;45812;53.540;9.774;2023-10-13T01:34:49;101030.75;;;14.42;100.00
59951;BME280;45812;53.540;9.774;2023-10-13T01:37:15;101029.38;;;14.46;100.00
59951;BME280;45812;53.540;9.774;2023-10-13T01:39:41;101026.34;;;14.49;100.00
59951;BME280;45812;53.540;9.774;2023-10-13T01:42:06;101021.81;;;14.49;100.00
59951;BME280;45812;53.540;9.774;2023-10-13T01:44:32;101026.19;;;14.50;100.00
59951;BME280;45812;53.540;9.774;2023-10-13T01:46:58;101016.94;;;14.53;100.00
59951;BME280;45812;53.540;9.774;2023-10-13T01:49:24;101014.09;;;14.54;100.00
59951;BME280;45812;53.540;9.774;2023-10-13T01:51:50;101012.41;;;14.53;100.00
59951;BME280;45812;53.540;9.774;2023-10-13T01:54:15;101002.34;;;14.56;100.00
59951;BME280;45812;53.540;9.774;2023-10-13T01:56:41;100990.63;;;14.57;100.00
59951;BME280;45812;53.540;9.774;2023-10-13T01:59:13;100991.25;;;14.59;100.00
59951;BME280;45812;53.540;9.774;2023-10-13T02:01:39;100987.56;;;14.60;100.00
59951;BME280;45812;53.540;9.774;2023-10-13T02:04:05;100985.91;;;14.59;100.00
59951;BME280;45812;53.540;9.774;2023-10-13T02:06:33;100986.53;;;14.61;100.00
59951;BME280;45812;53.540;9.774;2023-10-13T02:08:59;100978.50;;;14.61;100.00
59951;BME280;45812;53.540;9.774;2023-10-13T02:11:31;100969.06;;;14.65;100.00
59951;BME280;45812;53.540;9.774;2023-10-13T02:13:56;100967.03;;;14.67;100.00
59951;BME280;45812;53.540;9.774;2023-10-13T02:16:22;100961.69;;;14.67;100.00
59951;BME280;45812;53.540;9.774;2023-10-13T02:18:50;100954.28;;;14.69;100.00
59951;BME280;45812;53.540;9.774;2023-10-13T02:21:16;100954.28;;;14.69;100.00
59951;BME280;45812;53.540;9.774;2023-10-13T02:23:42;100954.97;;;14.71;100.00
59951;BME280;45812;53.540;9.774;2023-10-13T02:26:14;100952.91;;;14.73;100.00
59951;BME280;45812;53.540;9.774;2023-10-13T02:28:59;100945.53;;;14.75;100.00
59951;BME280;45812;53.540;9.774;2023-10-13T02:31:27;100947.19;;;14.76;100.00
59951;BME280;45812;53.540;9.774;2023-10-13T02:33:52;100939.16;;;14.76;100.00
59951;BME280;45812;53.540;9.774;2023-10-13T02:36:18;100938.97;;;14.77;100.00
59951;BME280;45812;53.540;9.774;2023-10-13T02:38:50;100934.44;;;14.78;100.00
59951;BME280;45812;53.540;9.774;2023-10-13T02:41:19;100930.47;;;14.74;100.00
59951;BME280;45812;53.540;9.774;2023-10-13T02:43:52;100922.06;;;14.77;100.00
59951;BME280;45812;53.540;9.774;2023-10-13T02:46:21;100918.72;;;14.75;100.00
59951;BME280;45812;53.540;9.774;2023-10-13T02:48:48;100920.38;;;14.76;100.00
59951;BME280;45812;53.540;9.774;2023-10-13T02:51:18;100915.84;;;14.76;100.00
59951;BME280;45812;53.540;9.774;2023-10-13T02:53:44;100913.38;;;14.75;100.00
59951;BME280;45812;53.540;9.774;2023-10-13T02:56:17;100914.00;;;14.77;100.00
59951;BME280;45812;53.540;9.774;2023-10-13T02:58:49;100902.28;;;14.78;100.00
59951;BME280;45812;53.540;9.774;2023-10-13T03:01:19;100896.66;;;14.73;100.00
59951;BME280;45812;53.540;9.774;2023-10-13T03:03:49;100890.84;;;14.69;100.00
59951;BME280;45812;53.540;9.774;2023-10-13T03:06:16;100893.53;;;14.69;100.00
59951;BME280;45812;53.540;9.774;2023-10-13T03:08:41;100883.63;;;14.70;100.00
59951;BME280;45812;53.540;9.774;2023-10-13T03:11:09;100883.78;;;14.68;100.00
59951;BME280;45812;53.540;9.774;2023-10-13T03:13:35;100883.97;;;14.67;100.00
59951;BME280;45812;53.540;9.774;2023-10-13T03:16:00;100874.28;;;14.66;100.00
59951;BME280;45812;53.540;9.774;2023-10-13T03:18:25;100866.44;;;14.64;100.00
59951;BME280;45812;53.540;9.774;2023-10-13T03:20:51;100871.53;;;14.59;100.00
59951;BME280;45812;53.540;9.774;2023-10-13T03:23:22;100866.19;;;14.59;100.00
59951;BME280;45812;53.540;9.774;2023-10-13T03:25:49;100868.22;;;14.57;100.00
59951;BME280;45812;53.540;9.774;2023-10-13T03:28:20;100862.47;;;14.60;100.00
59951;BME280;45812;53.540;9.774;2023-10-13T03:30:49;100864.91;;;14.55;100.00
59951;BME280;45812;53.540;9.774;2023-10-13T03:33:17;100862.03;;;14.57;100.00
59951;BME280;45812;53.540;9.774;2023-10-13T03:35:51;100860.19;;;14.57;100.00
59951;BME280;45812;53.540;9.774;2023-10-13T03:38:19;100854.44;;;14.60;100.00
59951;BME280;45812;53.540;9.774;2023-10-13T03:40:50;100859.16;;;14.58;100.00
59951;BME280;45812;53.540;9.774;2023-10-13T03:43:31;100850.56;;;14.63;100.00
59951;BME280;45812;53.540;9.774;2023-10-13T03:45:56;100845.38;;;14.61;100.00
59951;BME280;45812;53.540;9.774;2023-10-13T03:48:33;100843.16;;;14.65;100.00
59951;BME280;45812;53.540;9.774;2023-10-13T03:51:06;100840.28;;;14.66;100.00
59951;BME280;45812;53.540;9.774;2023-10-13T03:53:37;100825.53;;;14.70;100.00
59951;BME280;45812;53.540;9.774;2023-10-13T03:56:17;100819.78;;;14.73;100.00
59951;BME280;45812;53.540;9.774;2023-10-13T03:58:55;100823.09;;;14.75;100.00
59951;BME280;45812;53.540;9.774;2023-10-13T04:01:25;100811.53;;;14.75;100.00
59951;BME280;45812;53.540;9.774;2023-10-13T04:04:00;100814.47;;;14.80;100.00
59951;BME280;45812;53.540;9.774;2023-10-13T04:06:30;100816.13;;;14.81;100.00
59951;BME280;45812;53.540;9.774;2023-10-13T04:09:19;100819.44;;;14.83;100.00
59951;BME280;45812;53.540;9.774;2023-10-13T04:12:01;100817.41;;;14.85;100.00
59951;BME280;45812;53.540;9.774;2023-10-13T04:14:31;100814.53;;;14.87;100.00
59951;BME280;45812;53.540;9.774;2023-10-13T04:17:15;100816.88;;;14.90;100.00
59951;BME280;45812;53.540;9.774;2023-10-13T04:19:41;100816.28;;;14.94;100.00
59951;BME280;45812;53.540;9.774;2023-10-13T04:22:25;100805.19;;;14.97;100.00
59951;BME280;45812;53.540;9.774;2023-10-13T04:25:22;100802.09;;;15.00;100.00
59951;BME280;45812;53.540;9.774;2023-10-13T04:28:03;100806.06;;;15.04;100.00
59951;BME280;45812;53.540;9.774;2023-10-13T04:30:41;100801.38;;;15.06;100.00
59951;BME280;45812;53.540;9.774;2023-10-13T04:33:13;100789.41;;;15.09;100.00
59951;BME280;45812;53.540;9.774;2023-10-13T04:36:08;100792.53;;;15.12;100.00
59951;BME280;45812;53.540;9.774;2023-10-13T04:38:59;100786.78;;;15.15;100.00
59951;BME280;45812;53.540;9.774;2023-10-13T04:41:35;100774.84;;;15.18;100.00
59951;BME280;45812;53.540;9.774;2023-10-13T04:44:15;100765.38;;;15.22;100.00
59951;BME280;45812;53.540;9.774;2023-10-13T04:47:00;100765.03;;;15.25;100.00
59951;BME280;45812;53.540;9.774;2023-10-13T04:49:26;100744.00;;;15.29;100.00
59951;BME280;45812;53.540;9.774;2023-10-13T04:52:14;100741.13;;;15.30;100.00
59951;BME280;45812;53.540;9.774;2023-10-13T04:55:09;100742.00;;;15.37;100.00
59951;BME280;45812;53.540;9.774;2023-10-13T04:57:41;100740.38;;;15.43;100.00
59951;BME280;45812;53.540;9.774;2023-10-13T05:00:15;100735.00;;;15.43;100.00
59951;BME280;45812;53.540;9.774;2023-10-13T05:02:47;100730.28;;;15.45;100.00
59951;BME280;45812;53.540;9.774;2023-10-13T05:05:31;100722.69;;;15.49;100.00
59951;BME280;45812;53.540;9.774;2023-10-13T05:07:56;100723.09;;;15.52;100.00
59951;BME280;45812;53.540;9.774;2023-10-13T05:10:39;100712.38;;;15.52;100.00
59951;BME280;45812;53.540;9.774;2023-10-13T05:13:23;100699.16;;;15.51;100.00
59951;BME280;45812;53.540;9.774;2023-10-13T05:16:07;100701.66;;;15.52;100.00
59951;BME280;45812;53.540;9.774;2023-10-13T05:18:51;100694.22;;;15.54;100.00
59951;BME280;45812;53.540;9.774;2023-10-13T05:21:35;100693.00;;;15.57;100.00
59951;BME280;45812;53.540;9.774;2023-10-13T05:24:19;100694.47;;;15.59;100.00
59951;BME280;45812;53.540;9.774;2023-10-13T05:27:03;100684.75;;;15.58;100.00
59951;BME280;45812;53.540;9.774;2023-10-13T05:29:48;100690.13;;;15.58;100.00
59951;BME280;45812;53.540;9.774;2023-10-13T05:32:32;100676.69;;;15.58;100.00
59951;BME280;45812;53.540;9.774;2023-10-13T05:35:19;100686.44;;;15.59;100.00
59951;BME280;45812;53.540;9.774;2023-10-13T05:38:03;100671.94;;;15.54;100.00
59951;BME280;45812;53.540;9.774;2023-10-13T05:41:00;100663.28;;;15.58;100.00
59951;BME280;45812;53.540;9.774;2023-10-13T05:43:44;100664.59;;;15.62;100.00
59951;BME280;45812;53.540;9.774;2023-10-13T05:46:28;100671.22;;;15.66;100.00
59951;BME280;45812;53.540;9.774;2023-10-13T05:49:14;100662.13;;;15.67;100.00
59951;BME280;45812;53.540;9.774;2023-10-13T05:51:40;100667.50;;;15.67;100.00
59951;BME280;45812;53.540;9.774;2023-10-13T05:54:08;100661.94;;;15.69;100.00
59951;BME280;45812;53.540;9.774;2023-10-13T05:56:53;100658.03;;;15.71;100.00
59951;BME280;45812;53.540;9.774;2023-10-13T05:59:37;100657.81;;;15.73;100.00
59951;BME280;45812;53.540;9.774;2023-10-13T06:02:23;100655.56;;;15.77;100.00
59951;BME280;45812;53.540;9.774;2023-10-13T06:05:11;100644.81;;;15.77;100.00
59951;BME280;45812;53.540;9.774;2023-10-13T06:07:56;100646.69;;;15.76;100.00
59951;BME280;45812;53.540;9.774;2023-10-13T06:10:41;100651.84;;;15.78;100.00
59951;BME280;45812;53.540;9.774;2023-10-13T06:13:25;100639.88;;;15.73;100.00
59951;BME280;45812;53.540;9.774;2023-10-13T06:16:11;100638.84;;;15.74;100.00
59951;BME280;45812;53.540;9.774;2023-10-13T06:18:55;100641.31;;;15.76;100.00
59951;BME280;45812;53.540;9.774;2023-10-13T06:21:39;100636.56;;;15.71;100.00
59951;BME280;45812;53.540;9.774;2023-10-13T06:24:23;100633.25;;;15.76;100.00
59951;BME280;45812;53.540;9.774;2023-10-13T06:27:07;100634.50;;;15.73;100.00
59951;BME280;45812;53.540;9.774;2023-10-13T06:29:51;100627.06;;;15.75;100.00
59951;BME280;45812;53.540;9.774;2023-10-13T06:32:19;100624.16;;;15.70;100.00
59951;BME280;45812;53.540;9.774;2023-10-13T06:34:45;100630.97;;;15.73;100.00
59951;BME280;45812;53.540;9.774;2023-10-13T06:37:14;100636.56;;;15.71;100.00
59951;BME280;45812;53.540;9.774;2023-10-13T06:40:12;100650.59;;;15.73;100.00
59951;BME280;45812;53.540;9.774;2023-10-13T06:42:51;100620.03;;;15.74;100.00
59951;BME280;45812;53.540;9.774;2023-10-13T06:45:18;100623.13;;;15.71;100.00
59951;BME280;45812;53.540;9.774;2023-10-13T06:47:44;100610.75;;;15.77;100.00
59951;BME280;45812;53.540;9.774;2023-10-13T06:50:11;100613.25;;;15.79;100.00
59951;BME280;45812;53.540;9.774;2023-10-13T06:52:48;100605.41;;;15.77;100.00
59951;BME280;45812;53.540;9.774;2023-10-13T06:55:13;100602.91;;;15.75;100.00
59951;BME280;45812;53.540;9.774;2023-10-13T06:57:53;100600.47;;;15.81;100.00
59951;BME280;45812;53.540;9.774;2023-10-13T07:00:24;100594.69;;;15.84;100.00
59951;BME280;45812;53.540;9.774;2023-10-13T07:03:00;100596.34;;;15.85;100.00
59951;BME280;45812;53.540;9.774;2023-10-13T07:05:41;100592.22;;;15.82;100.00
59951;BME280;45812;53.540;9.774;2023-10-13T07:08:10;100592.63;;;15.86;100.00
59951;BME280;45812;53.540;9.774;2023-10-13T07:10:47;100580.03;;;15.86;100.00
59951;BME280;45812;53.540;9.774;2023-10-13T07:13:30;100582.94;;;15.85;100.00
59951;BME280;45812;53.540;9.774;2023-10-13T07:15:55;100572.00;;;15.86;100.00
59951;BME280;45812;53.540;9.774;2023-10-13T07:18:25;100577.78;;;15.90;100.00
59951;BME280;45812;53.540;9.774;2023-10-13T07:20:50;100574.47;;;15.88;100.00
59951;BME280;45812;53.540;9.774;2023-10-13T07:23:16;100577.56;;;15.85;100.00
59951;BME280;45812;53.540;9.774;2023-10-13T07:25:55;100570.53;;;15.90;100.00
59951;BME280;45812;53.540;9.774;2023-10-13T07:28:27;100562.50;;;15.84;100.00
59951;BME280;45812;53.540;9.774;2023-10-13T07:30:52;100557.75;;;15.86;100.00
59951;BME280;45812;53.540;9.774;2023-10-13T07:33:18;100543.50;;;15.85;100.00
59951;BME280;45812;53.540;9.774;2023-10-13T07:35:45;100534.41;;;15.86;100.00
59951;BME280;45812;53.540;9.774;2023-10-13T07:38:16;100521.81;;;15.87;100.00
59951;BME280;45812;53.540;9.774;2023-10-13T07:40:41;100514.81;;;15.86;100.00
59951;BME280;45812;53.540;9.774;2023-10-13T07:43:07;100497.47;;;15.88;100.00
59951;BME280;45812;53.540;9.774;2023-10-13T07:45:37;100499.94;;;15.90;100.00
59951;BME280;45812;53.540;9.774;2023-10-13T07:48:05;100500.75;;;15.90;100.00
59951;BME280;45812;53.540;9.774;2023-10-13T07:50:38;100497.88;;;15.92;100.00
59951;BME280;45812;53.540;9.774;2023-10-13T07:53:03;100487.13;;;15.92;100.00
59951;BME280;45812;53.540;9.774;2023-10-13T07:55:46;100487.53;;;15.89;100.00
59951;BME280;45812;53.540;9.774;2023-10-13T07:58:22;100475.38;;;15.86;100.00
59951;BME280;45812;53.540;9.774;2023-10-13T08:00:53;100484.03;;;15.82;100.00
59951;BME280;45812;53.540;9.774;2023-10-13T08:03:41;100471.84;;;15.86;100.00
59951;BME280;45812;53.540;9.774;2023-10-13T08:06:10;100454.91;;;15.85;100.00
59951;BME280;45812;53.540;9.774;2023-10-13T08:08:35;100455.75;;;15.86;100.00
59951;BME280;45812;53.540;9.774;2023-10-13T08:11:11;100448.31;;;15.88;100.00
59951;BME280;45812;53.540;9.774;2023-10-13T08:13:43;100454.09;;;15.91;100.00
59951;BME280;45812;53.540;9.774;2023-10-13T08:16:15;100446.88;;;15.92;100.00
59951;BME280;45812;53.540;9.774;2023-10-13T08:18:54;100449.97;;;15.89;100.00
59951;BME280;45812;53.540;9.774;2023-10-13T08:21:19;100442.75;;;15.89;100.00
59951;BME280;45812;53.540;9.774;2023-10-13T08:23:49;100436.75;;;15.87;100.00
59951;BME280;45812;53.540;9.774;2023-10-13T08:26:18;100451.63;;;15.90;100.00
59951;BME280;45812;53.540;9.774;2023-10-13T08:29:04;100436.34;;;15.84;100.00
59951;BME280;45812;53.540;9.774;2023-10-13T08:31:56;100435.53;;;15.83;100.00
59951;BME280;45812;53.540;9.774;2023-10-13T08:34:39;100440.88;;;15.83;100.00
59951;BME280;45812;53.540;9.774;2023-10-13T08:37:07;100439.44;;;15.81;100.00
59951;BME280;45812;53.540;9.774;2023-10-13T08:39:57;100440.28;;;15.81;100.00
59951;BME280;45812;53.540;9.774;2023-10-13T08:42:33;100448.28;;;15.74;100.00
59951;BME280;45812;53.540;9.774;2023-10-13T08:45:12;100438.59;;;15.73;100.00
59951;BME280;45812;53.540;9.774;2023-10-13T08:47:54;100443.34;;;15.71;100.00
59951;BME280;45812;53.540;9.774;2023-10-13T08:50:48;100428.69;;;15.67;100.00
59951;BME280;45812;53.540;9.774;2023-10-13T08:53:15;100434.69;;;15.69;100.00
59951;BME280;45812;53.540;9.774;2023-10-13T08:56:02;100431.78;;;15.71;100.00
59951;BME280;45812;53.540;9.774;2023-10-13T08:58:42;100429.94;;;15.71;100.00
59951;BME280;45812;53.540;9.774;2023-10-13T09:01:24;100427.03;;;15.73;100.00
59951;BME280;45812;53.540;9.774;2023-10-13T09:04:11;100430.75;;;15.79;100.00
59951;BME280;45812;53.540;9.774;2023-10-13T09:06:59;100432.41;;;15.80;100.00
59951;BME280;45812;53.540;9.774;2023-10-13T09:09:25;100436.75;;;15.87;100.00
59951;BME280;45812;53.540;9.774;2023-10-13T09:11:59;100422.69;;;15.98;100.00
59951;BME280;45812;53.540;9.774;2023-10-13T09:14:35;100431.41;;;16.00;100.00
59951;BME280;45812;53.540;9.774;2023-10-13T09:17:09;100422.28;;;16.08;100.00
59951;BME280;45812;53.540;9.774;2023-10-13T09:19:47;100431.59;;;16.05;100.00
59951;BME280;45812;53.540;9.774;2023-10-13T09:22:23;100420.84;;;16.19;100.00
59951;BME280;45812;53.540;9.774;2023-10-13T09:25:15;100418.13;;;16.25;100.00
59951;BME280;45812;53.540;9.774;2023-10-13T09:27:40;100406.16;;;16.28;100.00
59951;BME280;45812;53.540;9.774;2023-10-13T09:30:06;100411.91;;;16.31;100.00
59951;BME280;45812;53.540;9.774;2023-10-13T09:32:35;100415.44;;;16.32;100.00
59951;BME280;45812;53.540;9.774;2023-10-13T09:35:19;100411.91;;;16.31;100.00
59951;BME280;45812;53.540;9.774;2023-10-13T09:37:49;100401.56;;;16.35;100.00
59951;BME280;45812;53.540;9.774;2023-10-13T09:40:16;100415.44;;;16.39;100.00
59951;BME280;45812;53.540;9.774;2023-10-13T09:42:52;100404.47;;;16.33;100.00
59951;BME280;45812;53.540;9.774;2023-10-13T09:45:23;100377.00;;;16.31;100.00
59951;BME280;45812;53.540;9.774;2023-10-13T09:47:52;100386.09;;;16.30;100.00
59951;BME280;45812;53.540;9.774;2023-10-13T09:50:19;100384.41;;;16.36;100.00
59951;BME280;45812;53.540;9.774;2023-10-13T09:52:50;100374.31;;;16.38;100.00
59951;BME280;45812;53.540;9.774;2023-10-13T09:55:26;100367.69;;;16.34;100.00
59951;BME280;45812;53.540;9.774;2023-10-13T09:58:00;100378.66;;;16.32;100.00
59951;BME280;45812;53.540;9.774;2023-10-13T10:00:40;100357.78;;;16.34;100.00
59951;BME280;45812;53.540;9.774;2023-10-13T10:03:06;100357.56;;;16.36;100.00
59951;BME280;45812;53.540;9.774;2023-10-13T10:05:57;100345.38;;;16.33;100.00
59951;BME280;45812;53.540;9.774;2023-10-13T10:08:30;100355.34;;;16.26;100.00
59951;BME280;45812;53.540;9.774;2023-10-13T10:11:27;100338.38;;;16.26;100.00
59951;BME280;45812;53.540;9.774;2023-10-13T10:14:10;100342.50;;;16.28;100.00
59951;BME280;45812;53.540;9.774;2023-10-13T10:17:04;100329.25;;;16.40;100.00
59951;BME280;45812;53.540;9.774;2023-10-13T10:19:33;100323.41;;;16.50;100.00
59951;BME280;45812;53.540;9.774;2023-10-13T10:22:05;100312.44;;;16.58;100.00
59951;BME280;45812;53.540;9.774;2023-10-13T10:24:42;100328.75;;;16.63;100.00
59951;BME280;45812;53.540;9.774;2023-10-13T10:27:07;100310.75;;;16.70;100.00
59951;BME280;45812;53.540;9.774;2023-10-13T10:29:33;100315.91;;;16.78;100.00
59951;BME280;45812;53.540;9.774;2023-10-13T10:31:59;100313.38;;;16.83;100.00
59951;BME280;45812;53.540;9.774;2023-10-13T10:34:30;100300.72;;;16.90;100.00
59951;BME280;45812;53.540;9.774;2023-10-13T10:36:58;100299.88;;;16.97;100.00
59951;BME280;45812;53.540;9.774;2023-10-13T10:39:36;100277.75;;;16.94;100.00
59951;BME280;45812;53.540;9.774;2023-10-13T10:42:14;100276.22;;;17.05;100.00
59951;BME280;45812;53.540;9.774;2023-10-13T10:44:53;100262.75;;;17.12;100.00
59951;BME280;45812;53.540;9.774;2023-10-13T10:47:22;100254.81;;;17.17;100.00
59951;BME280;45812;53.540;9.774;2023-10-13T10:49:58;100259.16;;;17.18;100.00
59951;BME280;45812;53.540;9.774;2023-10-13T10:52:33;100259.16;;;17.18;100.00
59951;BME280;45812;53.540;9.774;2023-10-13T10:55:03;100260.22;;;17.17;100.00
59951;BME280;45812;53.540;9.774;2023-10-13T10:57:33;100278.75;;;17.25;100.00
59951;BME280;45812;53.540;9.774;2023-10-13T11:00:03;100254.88;;;17.35;100.00
59951;BME280;45812;53.540;9.774;2023-10-13T11:02:37;100248.00;;;17.39;100.00
59951;BME280;45812;53.540;9.774;2023-10-13T11:05:03;100246.19;;;17.58;100.00
59951;BME280;45812;53.540;9.774;2023-10-13T11:07:31;100231.94;;;17.76;100.00
59951;BME280;45812;53.540;9.774;2023-10-13T11:10:07;100234.34;;;17.84;100.00
59951;BME280;45812;53.540;9.774;2023-10-13T11:12:36;100203.84;;;17.90;100.00
59951;BME280;45812;53.540;9.774;2023-10-13T11:15:05;100204.88;;;17.89;100.00
59951;BME280;45812;53.540;9.774;2023-10-13T11:17:40;100185.81;;;17.91;100.00
59951;BME280;45812;53.540;9.774;2023-10-13T11:20:23;100195.69;;;17.97;100.00
59951;BME280;45812;53.540;9.774;2023-10-13T11:23:12;100189.31;;;18.09;100.00
59951;BME280;45812;53.540;9.774;2023-10-13T11:25:37;100187.94;;;18.19;100.00
59951;BME280;45812;53.540;9.774;2023-10-13T11:28:17;100181.44;;;18.26;100.00
59951;BME280;45812;53.540;9.774;2023-10-13T11:30:43;100165.38;;;18.31;100.00
59951;BME280;45812;53.540;9.774;2023-10-13T11:33:15;100152.63;;;18.27;100.00
59951;BME280;45812;53.540;9.774;2023-10-13T11:35:44;100157.41;;;18.25;100.00
59951;BME280;45812;53.540;9.774;2023-10-13T11:41:01;100179.56;;;18.27;100.00
59951;BME280;45812;53.540;9.774;2023-10-13T11:43:34;100167.03;;;18.32;100.00
59951;BME280;45812;53.540;9.774;2023-10-13T11:46:12;100167.97;;;18.38;100.00
59951;BME280;45812;53.540;9.774;2023-10-13T11:48:39;100143.72;;;18.38;100.00
59951;BME280;45812;53.540;9.774;2023-10-13T11:51:08;100138.94;;;18.40;100.00
59951;BME280;45812;53.540;9.774;2023-10-13T11:53:37;100164.50;;;18.49;100.00
59951;BME280;45812;53.540;9.774;2023-10-13T11:56:03;100155.13;;;18.52;100.00
59951;BME280;45812;53.540;9.774;2023-10-13T11:58:34;100152.69;;;18.50;100.00
59951;BME280;45812;53.540;9.774;2023-10-13T12:01:00;100181.38;;;18.44;100.00
59951;BME280;45812;53.540;9.774;2023-10-13T12:06:24;100118.13;;;18.59;100.00
59951;BME280;45812;53.540;9.774;2023-10-13T12:09:10;100110.84;;;18.59;100.00
59951;BME280;45812;53.540;9.774;2023-10-13T12:11:46;100108.91;;;18.66;100.00
59951;BME280;45812;53.540;9.774;2023-10-13T12:14:12;100140.06;;;18.62;100.00
59951;BME280;45812;53.540;9.774;2023-10-13T12:16:47;100109.72;;;18.67;100.00
59951;BME280;45812;53.540;9.774;2023-10-13T12:19:22;100112.53;;;18.72;100.00
59951;BME280;45812;53.540;9.774;2023-10-13T12:21:49;100102.13;;;18.64;100.00
59951;BME280;45812;53.540;9.774;2023-10-13T12:24:14;100080.59;;;18.57;100.00
59951;BME280;45812;53.540;9.774;2023-10-13T12:26:58;100093.03;;;18.58;100.00
59951;BME280;45812;53.540;9.774;2023-10-13T12:29:23;100093.84;;;18.59;100.00
59951;BME280;45812;53.540;9.774;2023-10-13T12:31:53;100084.50;;;18.61;100.00
59951;BME280;45812;53.540;9.774;2023-10-13T12:34:37;100092.38;;;18.63;100.00
59951;BME280;45812;53.540;9.774;2023-10-13T12:37:21;100084.28;;;18.74;100.00
59951;BME280;45812;53.540;9.774;2023-10-13T12:40:08;100083.72;;;18.84;100.00
59951;BME280;45812;53.540;9.774;2023-10-13T12:42:53;100094.03;;;18.87;100.00
59951;BME280;45812;53.540;9.774;2023-10-13T12:45:44;100073.06;;;18.89;100.00
59951;BME280;45812;53.540;9.774;2023-10-13T12:48:29;100082.44;;;18.87;100.00
59951;BME280;45812;53.540;9.774;2023-10-13T12:51:14;100094.88;;;18.99;100.00
59951;BME280;45812;53.540;9.774;2023-10-13T12:53:52;100076.34;;;19.03;100.00
59951;BME280;45812;53.540;9.774;2023-10-13T12:56:18;100056.25;;;19.11;100.00
59951;BME280;45812;53.540;9.774;2023-10-13T12:58:51;100077.25;;;19.20;100.00
59951;BME280;45812;53.540;9.774;2023-10-13T13:01:24;100045.66;;;19.32;100.00
59951;BME280;45812;53.540;9.774;2023-10-13T13:03:52;100068.41;;;19.60;100.00
59951;BME280;45812;53.540;9.774;2023-10-13T13:06:22;100072.63;;;19.56;100.00
59951;BME280;45812;53.540;9.774;2023-10-13T13:08:54;100053.34;;;19.64;100.00
59951;BME280;45812;53.540;9.774;2023-10-13T13:11:19;100051.03;;;19.56;100.00
59951;BME280;45812;53.540;9.774;2023-10-13T13:13:45;100058.19;;;19.62;100.00
59951;BME280;45812;53.540;9.774;2023-10-13T13:16:14;100057.78;;;19.70;100.00
59951;BME280;45812;53.540;9.774;2023-10-13T13:18:39;100058.72;;;19.76;100.00
59951;BME280;45812;53.540;9.774;2023-10-13T13:21:05;100038.59;;;19.83;100.00